CYSC

Sherbrooke Airport

Sherbrooke, , Canada
METAR CYSC 211300Z AUTO 11003KT 030V130 9SM FEW250 22/16 A3016 RMK SLP215 DENSITY ALT 1400FT
Observed Flight Rules
Jul-21 @ 13:00 UTC (54 minutes ago) Visual Flight Rules
Wind Visibility Clouds
110° at 3 knots 9 miles
  • Few at 25,000' AGL
Temperatures Readings
Current 22°C / 72°F
Dewpoint 16°C / 61°F
Humidity 69%
Altimeter 30.16" Hg
Pressure 1021.5 hPa
Elevation 241
METAR CYSC 211300Z AUTO 11003KT 030V130 9SM FEW250 22/16 A3016 RMK SLP215 DENSITY ALT 1400FT
Observed Flight Rules
Jul-21 @ 13:00 UTC
(54 minutes ago)
VFR
Wind Visibility
110° at 3 knots 9 miles
Clouds
  • Few at 25,000' AGL
Temperature Dewpoint
22°C / 72°F 16°C / 61°F
Humidity Altimeter Pressure
69% 30.16" Hg 1021.5 hPa